Flight Track Log - Related Links

Times and Time Zones

All times are in EDT time to prevent confusion due to time zone crossing. See the N4845J flight status page for this flight to view local times or setup timezone preferences in your user account.

Time Position Orientation Groundspeed Altitude Reporting Facility
EDT Latitude Longitude Course Direction KTS MPH feet Rate Location/Type
Sat 08:00:57 PM 33.8167 -118.1667 360° North 79 91 900  Level Southern California TRACON
Sat 08:01:57 PM 33.8333 -118.1667 360° North 88 101 1,400 550 Climbing Southern California TRACON
Sat 08:02:57 PM 33.8500 -118.1333 59° Northeast 94 108 2,000 619 Climbing Southern California TRACON
Sat 08:04:03 PM 33.8500 -118.1000 90° East 96 110 2,700 524 Climbing Southern California TRACON
Sat 08:05:03 PM 33.8500 -118.0667 90° East 96 110 3,100 368 Climbing Southern California TRACON
Sat 08:05:57 PM 33.8500 -118.0333 90° East 96 110 3,400 421 Climbing Southern California TRACON
Sat 08:06:57 PM 33.8500 -118.0000 90° East 101 116 3,900 429 Climbing Southern California TRACON
Sat 08:08:03 PM 33.8500 -117.9667 90° East 105 121 4,300 333 Climbing Southern California TRACON
Sat 08:09:03 PM 33.8500 -117.9333 90° East 102 117 4,600 400 Climbing Southern California TRACON
Sat 08:10:03 PM 33.8500 -117.9000 90° East 103 119 5,100 450 Climbing Southern California TRACON
Sat 08:11:03 PM 33.8333 -117.8667 121° Southeast 102 117 5,500 350 Climbing Southern California TRACON
Sat 08:12:03 PM 33.8333 -117.8333 90° East 103 119 5,800 350 Climbing Southern California TRACON
Sat 08:13:03 PM 33.8333 -117.8000 90° East 105 121 6,200 333 Climbing Southern California TRACON
Sat 08:14:09 PM 33.8333 -117.7500 90° East 106 122 6,500 286 Climbing Southern California TRACON
Sat 08:15:09 PM 33.8333 -117.7167 90° East 109 125 6,800 300 Climbing Southern California TRACON
Sat 08:16:09 PM 33.8333 -117.6833 90° East 111 128 7,100 200 Climbing Southern California TRACON
Sat 08:17:09 PM 33.8333 -117.6500 90° East 109 125 7,200 99 Climbing Southern California TRACON
Sat 08:18:10 PM 33.8333 -117.6167 90° East 107 123 7,300 125 Climbing Southern California TRACON
Sat 08:18:45 PM 33.8328 -117.5983 92° East 108 124 7,400 124 Climbing Los Angeles Center
Sat 08:19:47 PM 33.8283 -117.5597 98° East 111 128 7,500  Climbing Los Angeles Center
Sat 08:20:49 PM 33.8175 -117.5072 104° East 130 150 7,400 -48 Descending Los Angeles Center
Sat 08:21:51 PM 33.8092 -117.4675 104° East 129 148 7,400  Level Los Angeles Center
Sat 08:22:53 PM 33.7986 -117.4311 109° East 121 139 7,400 97 Level Los Angeles Center
Sat 08:23:55 PM 33.7906 -117.3925 104° East 118 136 7,600 97 Climbing Los Angeles Center
Sat 08:24:57 PM 33.7836 -117.3511 101° East 122 140 7,600 -49 Level Los Angeles Center
Sat 08:25:58 PM 33.7789 -117.3075 97° East 127 146 7,500 -49 Descending Los Angeles Center
Sat 08:27:00 PM 33.7700 -117.2669 105° East 127 146 7,500  Level Los Angeles Center
Sat 08:28:02 PM 33.7647 -117.2197 98° East 120 138 7,500 48 Level Los Angeles Center
Sat 08:29:04 PM 33.7594 -117.1822 100° East 120 138 7,600 48 Climbing Los Angeles Center
Sat 08:30:06 PM 33.7506 -117.1428 105° East 120 138 7,600 -49 Level Los Angeles Center
Sat 08:31:07 PM 33.7447 -117.1033 100° East 120 138 7,500  Descending Los Angeles Center
Sat 08:32:09 PM 33.7428 -117.0622 93° East 120 138 7,600 194 Climbing Los Angeles Center
Sat 08:33:11 PM 33.7392 -117.0219 96° East 121 139 7,900 290 Climbing Los Angeles Center
Sat 08:34:13 PM 33.7342 -116.9778 98° East 116 133 8,200 195 Climbing Los Angeles Center
Sat 08:35:14 PM 33.7311 -116.9403 96° East 115 132 8,300 195 Climbing Los Angeles Center
Sat 08:36:16 PM 33.7267 -116.9031 98° East 115 132 8,600 242 Climbing Los Angeles Center
Sat 08:37:18 PM 33.7219 -116.8656 99° East 115 132 8,800 146 Climbing Los Angeles Center
Sat 08:38:19 PM 33.7175 -116.8314 99° East 115 132 8,900 146 Climbing Los Angeles Center
Sat 08:39:21 PM 33.7100 -116.7864 101° East 115 132 9,100 242 Climbing Los Angeles Center
Sat 08:40:23 PM 33.7039 -116.7475 101° East 115 132 9,400 49 Climbing Los Angeles Center
Sat 08:41:24 PM 33.6994 -116.7083 98° East 116 133 9,200 -49 Descending Los Angeles Center
Sat 08:42:26 PM 33.6983 -116.6658 92° East 118 136 9,300 195 Climbing Los Angeles Center
Sat 08:43:27 PM 33.7017 -116.6244 84° East 121 139 9,600 -98 Climbing Los Angeles Center
Sat 08:44:29 PM 33.7103 -116.5831 76° East 124 143 9,100 -823 Descending Los Angeles Center
Sat 08:45:31 PM 33.7200 -116.5419 74° East 124 143 7,900 -1,073 Descending Los Angeles Center
Sat 08:46:32 PM 33.7356 -116.5086 61° Northeast 124 143 6,900 -1,125 Descending Los Angeles Center
Sat 08:48:11 PM 33.7833 -116.5000 North 102 117 4,900 -1,132 Descending Southern California TRACON
Sat 08:49:11 PM 33.8000 -116.5000 360° North 95 109 3,900 -950 Descending Southern California TRACON
Sat 08:50:11 PM 33.8333 -116.5000 360° North 106 122 3,000 -800 Descending Southern California TRACON
Sat 08:51:11 PM 33.8500 -116.5167 320° Northwest 75 86 2,300 -750 Descending Southern California TRACON
Sat 08:52:11 PM 33.8500 -116.5167 320° Northwest 87 100 1,500 -800 Descending Southern California TRACON

Login

Don't have an account? Register now (free) for customized features, flight alerts, and more!